sensor_id;sensor_type;location;lat;lon;timestamp;P1;durP1;ratioP1;P2;durP2;ratioP2
64950;SDS011;51482;47.014;7.652;2022-10-16T00:00:26;1.85;;;1.75;;
64950;SDS011;51482;47.014;7.652;2022-10-16T00:02:51;2.05;;;1.70;;
64950;SDS011;51482;47.014;7.652;2022-10-16T00:05:17;6.28;;;1.77;;
64950;SDS011;51482;47.014;7.652;2022-10-16T00:07:42;5.18;;;1.98;;
64950;SDS011;51482;47.014;7.652;2022-10-16T00:10:08;5.93;;;2.08;;
64950;SDS011;51482;47.014;7.652;2022-10-16T00:12:34;3.92;;;1.80;;
64950;SDS011;51482;47.014;7.652;2022-10-16T00:14:59;3.58;;;1.70;;
64950;SDS011;51482;47.014;7.652;2022-10-16T00:17:25;2.10;;;1.95;;
64950;SDS011;51482;47.014;7.652;2022-10-16T00:19:50;1.60;;;1.50;;
64950;SDS011;51482;47.014;7.652;2022-10-16T00:22:16;3.08;;;1.70;;
64950;SDS011;51482;47.014;7.652;2022-10-16T00:24:41;2.88;;;1.98;;
64950;SDS011;51482;47.014;7.652;2022-10-16T00:27:07;5.10;;;2.33;;
64950;SDS011;51482;47.014;7.652;2022-10-16T00:29:32;2.80;;;1.88;;
64950;SDS011;51482;47.014;7.652;2022-10-16T00:31:58;4.32;;;1.80;;
64950;SDS011;51482;47.014;7.652;2022-10-16T00:34:23;6.93;;;2.17;;
64950;SDS011;51482;47.014;7.652;2022-10-16T00:36:49;2.45;;;1.67;;
64950;SDS011;51482;47.014;7.652;2022-10-16T00:39:14;2.10;;;1.67;;
64950;SDS011;51482;47.014;7.652;2022-10-16T00:41:40;3.10;;;1.63;;
64950;SDS011;51482;47.014;7.652;2022-10-16T00:44:42;2.42;;;1.52;;
64950;SDS011;51482;47.014;7.652;2022-10-16T00:47:07;2.28;;;1.35;;
64950;SDS011;51482;47.014;7.652;2022-10-16T00:49:34;5.07;;;1.50;;
64950;SDS011;51482;47.014;7.652;2022-10-16T00:52:00;3.70;;;1.80;;
64950;SDS011;51482;47.014;7.652;2022-10-16T00:54:26;2.17;;;1.80;;
64950;SDS011;51482;47.014;7.652;2022-10-16T00:56:54;3.45;;;1.52;;
64950;SDS011;51482;47.014;7.652;2022-10-16T00:59:25;3.47;;;1.70;;
64950;SDS011;51482;47.014;7.652;2022-10-16T01:01:53;3.10;;;1.60;;
64950;SDS011;51482;47.014;7.652;2022-10-16T01:04:19;3.67;;;1.88;;
64950;SDS011;51482;47.014;7.652;2022-10-16T01:06:48;2.85;;;1.67;;
64950;SDS011;51482;47.014;7.652;2022-10-16T01:09:31;4.70;;;1.98;;
64950;SDS011;51482;47.014;7.652;2022-10-16T01:12:10;3.33;;;1.65;;
64950;SDS011;51482;47.014;7.652;2022-10-16T01:14:59;1.77;;;1.40;;
64950;SDS011;51482;47.014;7.652;2022-10-16T01:17:49;5.82;;;2.88;;
64950;SDS011;51482;47.014;7.652;2022-10-16T01:20:30;4.05;;;1.45;;
64950;SDS011;51482;47.014;7.652;2022-10-16T01:31:16;1.40;;;1.30;;
64950;SDS011;51482;47.014;7.652;2022-10-16T01:33:48;5.18;;;1.65;;
64950;SDS011;51482;47.014;7.652;2022-10-16T01:36:33;1.55;;;1.30;;
64950;SDS011;51482;47.014;7.652;2022-10-16T01:39:04;1.63;;;1.52;;
64950;SDS011;51482;47.014;7.652;2022-10-16T01:41:33;1.70;;;1.60;;
64950;SDS011;51482;47.014;7.652;2022-10-16T01:44:09;4.00;;;1.67;;
64950;SDS011;51482;47.014;7.652;2022-10-16T01:46:39;4.97;;;1.70;;
64950;SDS011;51482;47.014;7.652;2022-10-16T01:49:08;2.38;;;1.35;;
64950;SDS011;51482;47.014;7.652;2022-10-16T01:51:35;2.92;;;1.42;;
64950;SDS011;51482;47.014;7.652;2022-10-16T01:54:02;4.15;;;1.80;;
64950;SDS011;51482;47.014;7.652;2022-10-16T01:56:31;2.83;;;2.00;;
64950;SDS011;51482;47.014;7.652;2022-10-16T01:59:01;7.20;;;1.53;;
64950;SDS011;51482;47.014;7.652;2022-10-16T02:01:33;2.33;;;1.52;;
64950;SDS011;51482;47.014;7.652;2022-10-16T02:04:02;2.63;;;1.67;;
64950;SDS011;51482;47.014;7.652;2022-10-16T02:06:34;3.75;;;1.80;;
64950;SDS011;51482;47.014;7.652;2022-10-16T02:09:00;4.32;;;1.55;;
64950;SDS011;51482;47.014;7.652;2022-10-16T02:11:26;2.65;;;1.63;;
64950;SDS011;51482;47.014;7.652;2022-10-16T02:13:53;4.03;;;1.60;;
64950;SDS011;51482;47.014;7.652;2022-10-16T02:16:32;1.73;;;1.50;;
64950;SDS011;51482;47.014;7.652;2022-10-16T02:19:02;5.90;;;2.03;;
64950;SDS011;51482;47.014;7.652;2022-10-16T02:21:29;5.32;;;1.80;;
64950;SDS011;51482;47.014;7.652;2022-10-16T02:26:35;1.90;;;1.50;;
64950;SDS011;51482;47.014;7.652;2022-10-16T02:29:23;8.32;;;2.78;;
64950;SDS011;51482;47.014;7.652;2022-10-16T02:31:54;3.42;;;1.80;;
64950;SDS011;51482;47.014;7.652;2022-10-16T02:34:23;3.50;;;1.58;;
64950;SDS011;51482;47.014;7.652;2022-10-16T02:36:53;2.97;;;1.40;;
64950;SDS011;51482;47.014;7.652;2022-10-16T02:39:21;4.05;;;1.83;;
64950;SDS011;51482;47.014;7.652;2022-10-16T02:41:47;5.75;;;1.38;;
64950;SDS011;51482;47.014;7.652;2022-10-16T02:44:13;1.58;;;1.20;;
64950;SDS011;51482;47.014;7.652;2022-10-16T02:46:38;7.00;;;2.22;;
64950;SDS011;51482;47.014;7.652;2022-10-16T02:49:04;2.20;;;1.60;;
64950;SDS011;51482;47.014;7.652;2022-10-16T02:51:29;1.73;;;1.30;;
64950;SDS011;51482;47.014;7.652;2022-10-16T02:53:55;4.05;;;1.45;;
64950;SDS011;51482;47.014;7.652;2022-10-16T02:56:20;1.75;;;1.60;;
64950;SDS011;51482;47.014;7.652;2022-10-16T02:58:46;2.70;;;1.65;;
64950;SDS011;51482;47.014;7.652;2022-10-16T03:01:12;4.55;;;1.40;;
64950;SDS011;51482;47.014;7.652;2022-10-16T03:03:39;4.22;;;1.45;;
64950;SDS011;51482;47.014;7.652;2022-10-16T03:06:04;1.90;;;1.70;;
64950;SDS011;51482;47.014;7.652;2022-10-16T03:08:31;4.30;;;1.50;;
64950;SDS011;51482;47.014;7.652;2022-10-16T03:10:56;1.48;;;1.38;;
64950;SDS011;51482;47.014;7.652;2022-10-16T03:13:22;5.10;;;2.38;;
64950;SDS011;51482;47.014;7.652;2022-10-16T03:15:47;2.50;;;1.60;;
64950;SDS011;51482;47.014;7.652;2022-10-16T03:18:13;4.22;;;1.60;;
64950;SDS011;51482;47.014;7.652;2022-10-16T03:20:39;15.07;;;3.00;;
64950;SDS011;51482;47.014;7.652;2022-10-16T03:23:05;2.03;;;1.42;;
64950;SDS011;51482;47.014;7.652;2022-10-16T03:25:33;2.67;;;1.40;;
64950;SDS011;51482;47.014;7.652;2022-10-16T03:27:58;1.02;;;1.02;;
64950;SDS011;51482;47.014;7.652;2022-10-16T03:30:24;2.08;;;1.25;;
64950;SDS011;51482;47.014;7.652;2022-10-16T03:32:49;1.92;;;1.30;;
64950;SDS011;51482;47.014;7.652;2022-10-16T03:35:18;2.08;;;1.27;;
64950;SDS011;51482;47.014;7.652;2022-10-16T03:37:45;2.10;;;1.88;;
64950;SDS011;51482;47.014;7.652;2022-10-16T03:40:10;4.30;;;1.40;;
64950;SDS011;51482;47.014;7.652;2022-10-16T03:42:36;3.38;;;1.30;;
64950;SDS011;51482;47.014;7.652;2022-10-16T03:45:02;2.20;;;1.10;;
64950;SDS011;51482;47.014;7.652;2022-10-16T03:47:28;6.25;;;1.70;;
64950;SDS011;51482;47.014;7.652;2022-10-16T03:49:53;1.70;;;1.58;;
64950;SDS011;51482;47.014;7.652;2022-10-16T03:52:19;3.42;;;1.70;;
64950;SDS011;51482;47.014;7.652;2022-10-16T03:54:44;2.83;;;1.70;;
64950;SDS011;51482;47.014;7.652;2022-10-16T03:57:10;2.75;;;1.58;;
64950;SDS011;51482;47.014;7.652;2022-10-16T03:59:35;3.88;;;1.58;;
64950;SDS011;51482;47.014;7.652;2022-10-16T04:02:01;1.85;;;1.60;;
64950;SDS011;51482;47.014;7.652;2022-10-16T04:04:26;4.13;;;1.42;;
64950;SDS011;51482;47.014;7.652;2022-10-16T04:06:52;3.88;;;1.23;;
64950;SDS011;51482;47.014;7.652;2022-10-16T04:09:17;6.40;;;1.52;;
64950;SDS011;51482;47.014;7.652;2022-10-16T04:11:43;4.68;;;1.48;;
64950;SDS011;51482;47.014;7.652;2022-10-16T04:14:09;1.42;;;1.33;;
64950;SDS011;51482;47.014;7.652;2022-10-16T04:16:34;7.57;;;1.63;;
64950;SDS011;51482;47.014;7.652;2022-10-16T04:19:00;2.85;;;1.30;;
64950;SDS011;51482;47.014;7.652;2022-10-16T04:21:25;2.00;;;1.27;;
64950;SDS011;51482;47.014;7.652;2022-10-16T04:23:51;3.50;;;1.35;;
64950;SDS011;51482;47.014;7.652;2022-10-16T04:26:16;2.75;;;1.30;;
64950;SDS011;51482;47.014;7.652;2022-10-16T04:28:42;2.10;;;1.63;;
64950;SDS011;51482;47.014;7.652;2022-10-16T04:31:08;1.73;;;1.23;;
64950;SDS011;51482;47.014;7.652;2022-10-16T04:33:34;1.77;;;1.45;;
64950;SDS011;51482;47.014;7.652;2022-10-16T04:35:59;7.55;;;1.70;;
64950;SDS011;51482;47.014;7.652;2022-10-16T04:38:26;4.93;;;1.25;;
64950;SDS011;51482;47.014;7.652;2022-10-16T04:40:51;1.38;;;1.20;;
64950;SDS011;51482;47.014;7.652;2022-10-16T04:43:17;0.95;;;0.95;;
64950;SDS011;51482;47.014;7.652;2022-10-16T04:45:43;5.60;;;1.08;;
64950;SDS011;51482;47.014;7.652;2022-10-16T04:48:09;2.72;;;1.20;;
64950;SDS011;51482;47.014;7.652;2022-10-16T04:50:34;1.45;;;1.35;;
64950;SDS011;51482;47.014;7.652;2022-10-16T04:53:00;1.48;;;1.30;;
64950;SDS011;51482;47.014;7.652;2022-10-16T04:55:25;1.00;;;1.00;;
64950;SDS011;51482;47.014;7.652;2022-10-16T04:57:51;2.97;;;1.58;;
64950;SDS011;51482;47.014;7.652;2022-10-16T05:00:17;3.17;;;1.20;;
64950;SDS011;51482;47.014;7.652;2022-10-16T05:02:42;1.73;;;1.38;;
64950;SDS011;51482;47.014;7.652;2022-10-16T05:05:08;1.40;;;1.17;;
64950;SDS011;51482;47.014;7.652;2022-10-16T05:07:34;1.33;;;1.23;;
64950;SDS011;51482;47.014;7.652;2022-10-16T05:09:59;4.18;;;1.30;;
64950;SDS011;51482;47.014;7.652;2022-10-16T05:12:25;1.30;;;1.20;;
64950;SDS011;51482;47.014;7.652;2022-10-16T05:14:50;3.15;;;1.30;;
64950;SDS011;51482;47.014;7.652;2022-10-16T05:17:16;1.95;;;1.10;;
64950;SDS011;51482;47.014;7.652;2022-10-16T05:19:41;1.98;;;1.30;;
64950;SDS011;51482;47.014;7.652;2022-10-16T05:22:07;1.70;;;1.25;;
64950;SDS011;51482;47.014;7.652;2022-10-16T05:24:32;2.30;;;1.33;;
64950;SDS011;51482;47.014;7.652;2022-10-16T05:26:58;2.45;;;1.25;;
64950;SDS011;51482;47.014;7.652;2022-10-16T05:29:23;1.63;;;1.42;;
64950;SDS011;51482;47.014;7.652;2022-10-16T05:31:50;3.65;;;1.42;;
64950;SDS011;51482;47.014;7.652;2022-10-16T05:34:16;3.65;;;1.52;;
64950;SDS011;51482;47.014;7.652;2022-10-16T05:36:42;1.40;;;1.30;;
64950;SDS011;51482;47.014;7.652;2022-10-16T05:39:10;2.87;;;1.40;;
64950;SDS011;51482;47.014;7.652;2022-10-16T05:41:36;1.38;;;1.27;;
64950;SDS011;51482;47.014;7.652;2022-10-16T05:44:05;1.93;;;1.20;;
64950;SDS011;51482;47.014;7.652;2022-10-16T05:46:31;3.63;;;1.55;;
64950;SDS011;51482;47.014;7.652;2022-10-16T05:48:57;2.45;;;1.20;;
64950;SDS011;51482;47.014;7.652;2022-10-16T05:51:22;3.90;;;1.70;;
64950;SDS011;51482;47.014;7.652;2022-10-16T05:53:48;2.60;;;1.50;;
64950;SDS011;51482;47.014;7.652;2022-10-16T05:56:14;1.77;;;1.35;;
64950;SDS011;51482;47.014;7.652;2022-10-16T05:58:40;1.77;;;1.50;;
64950;SDS011;51482;47.014;7.652;2022-10-16T06:01:07;2.10;;;1.40;;
64950;SDS011;51482;47.014;7.652;2022-10-16T06:03:37;2.30;;;1.33;;
64950;SDS011;51482;47.014;7.652;2022-10-16T06:06:16;3.30;;;1.60;;
64950;SDS011;51482;47.014;7.652;2022-10-16T06:08:44;2.53;;;1.53;;
64950;SDS011;51482;47.014;7.652;2022-10-16T06:11:11;1.50;;;1.27;;
64950;SDS011;51482;47.014;7.652;2022-10-16T06:13:42;5.40;;;1.80;;
64950;SDS011;51482;47.014;7.652;2022-10-16T06:16:08;3.87;;;1.50;;
64950;SDS011;51482;47.014;7.652;2022-10-16T06:18:35;1.45;;;1.35;;
64950;SDS011;51482;47.014;7.652;2022-10-16T06:21:06;4.70;;;1.90;;
64950;SDS011;51482;47.014;7.652;2022-10-16T06:23:37;3.70;;;1.90;;
64950;SDS011;51482;47.014;7.652;2022-10-16T06:26:06;2.70;;;1.45;;
64950;SDS011;51482;47.014;7.652;2022-10-16T06:28:36;2.72;;;2.08;;
64950;SDS011;51482;47.014;7.652;2022-10-16T06:31:03;3.50;;;1.47;;
64950;SDS011;51482;47.014;7.652;2022-10-16T06:33:29;4.57;;;1.50;;
64950;SDS011;51482;47.014;7.652;2022-10-16T06:38:35;6.07;;;1.65;;
64950;SDS011;51482;47.014;7.652;2022-10-16T06:41:02;6.43;;;1.80;;
64950;SDS011;51482;47.014;7.652;2022-10-16T06:43:29;2.87;;;1.70;;
64950;SDS011;51482;47.014;7.652;2022-10-16T06:45:57;1.60;;;1.50;;
64950;SDS011;51482;47.014;7.652;2022-10-16T06:48:23;3.88;;;1.98;;
64950;SDS011;51482;47.014;7.652;2022-10-16T06:53:25;2.07;;;1.87;;
64950;SDS011;51482;47.014;7.652;2022-10-16T06:55:54;2.07;;;1.70;;
64950;SDS011;51482;47.014;7.652;2022-10-16T06:58:20;2.40;;;1.85;;
64950;SDS011;51482;47.014;7.652;2022-10-16T07:00:46;2.30;;;1.90;;
64950;SDS011;51482;47.014;7.652;2022-10-16T07:03:12;4.20;;;2.80;;
64950;SDS011;51482;47.014;7.652;2022-10-16T07:05:39;5.20;;;2.90;;
64950;SDS011;51482;47.014;7.652;2022-10-16T07:08:05;5.05;;;2.90;;
64950;SDS011;51482;47.014;7.652;2022-10-16T07:10:31;3.88;;;2.67;;
64950;SDS011;51482;47.014;7.652;2022-10-16T07:12:57;5.30;;;2.72;;
64950;SDS011;51482;47.014;7.652;2022-10-16T07:15:22;3.40;;;2.30;;
64950;SDS011;51482;47.014;7.652;2022-10-16T07:17:49;5.80;;;3.60;;
64950;SDS011;51482;47.014;7.652;2022-10-16T07:20:16;7.18;;;4.00;;
64950;SDS011;51482;47.014;7.652;2022-10-16T07:22:42;4.65;;;3.30;;
64950;SDS011;51482;47.014;7.652;2022-10-16T07:25:08;8.82;;;4.43;;
64950;SDS011;51482;47.014;7.652;2022-10-16T07:27:33;6.28;;;3.92;;
64950;SDS011;51482;47.014;7.652;2022-10-16T07:29:59;8.50;;;3.47;;
64950;SDS011;51482;47.014;7.652;2022-10-16T07:32:25;6.57;;;3.20;;
64950;SDS011;51482;47.014;7.652;2022-10-16T07:34:51;7.63;;;3.22;;
64950;SDS011;51482;47.014;7.652;2022-10-16T07:37:17;5.18;;;2.45;;
64950;SDS011;51482;47.014;7.652;2022-10-16T07:39:43;3.60;;;2.50;;
64950;SDS011;51482;47.014;7.652;2022-10-16T07:42:08;4.95;;;2.33;;
64950;SDS011;51482;47.014;7.652;2022-10-16T07:44:34;1.90;;;1.75;;
64950;SDS011;51482;47.014;7.652;2022-10-16T07:46:59;4.57;;;2.25;;
64950;SDS011;51482;47.014;7.652;2022-10-16T07:49:25;3.63;;;1.73;;
64950;SDS011;51482;47.014;7.652;2022-10-16T07:51:50;3.05;;;2.10;;
64950;SDS011;51482;47.014;7.652;2022-10-16T07:54:16;4.05;;;2.20;;
64950;SDS011;51482;47.014;7.652;2022-10-16T07:56:41;3.17;;;2.25;;
64950;SDS011;51482;47.014;7.652;2022-10-16T07:59:07;2.00;;;1.90;;
64950;SDS011;51482;47.014;7.652;2022-10-16T08:01:32;5.80;;;2.20;;
64950;SDS011;51482;47.014;7.652;2022-10-16T08:03:58;3.80;;;1.83;;
64950;SDS011;51482;47.014;7.652;2022-10-16T08:06:23;4.25;;;1.92;;
64950;SDS011;51482;47.014;7.652;2022-10-16T08:08:49;3.22;;;2.00;;
64950;SDS011;51482;47.014;7.652;2022-10-16T08:11:15;1.70;;;1.52;;
64950;SDS011;51482;47.014;7.652;2022-10-16T08:13:41;3.30;;;1.70;;
64950;SDS011;51482;47.014;7.652;2022-10-16T08:16:07;1.70;;;1.60;;
64950;SDS011;51482;47.014;7.652;2022-10-16T08:18:34;2.13;;;1.70;;
64950;SDS011;51482;47.014;7.652;2022-10-16T08:21:00;3.33;;;2.00;;
64950;SDS011;51482;47.014;7.652;2022-10-16T08:23:27;4.15;;;1.85;;
64950;SDS011;51482;47.014;7.652;2022-10-16T08:25:53;1.98;;;1.88;;
64950;SDS011;51482;47.014;7.652;2022-10-16T08:28:19;1.50;;;1.40;;
64950;SDS011;51482;47.014;7.652;2022-10-16T08:30:46;2.90;;;1.80;;
64950;SDS011;51482;47.014;7.652;2022-10-16T08:33:11;6.03;;;2.10;;
64950;SDS011;51482;47.014;7.652;2022-10-16T08:35:37;1.77;;;1.67;;
64950;SDS011;51482;47.014;7.652;2022-10-16T08:38:06;4.70;;;1.98;;
64950;SDS011;51482;47.014;7.652;2022-10-16T08:40:32;2.10;;;1.63;;
64950;SDS011;51482;47.014;7.652;2022-10-16T08:48:35;8.30;;;2.22;;
64950;SDS011;51482;47.014;7.652;2022-10-16T08:51:05;1.95;;;1.75;;
64950;SDS011;51482;47.014;7.652;2022-10-16T08:53:36;2.67;;;1.73;;
64950;SDS011;51482;47.014;7.652;2022-10-16T08:56:08;3.70;;;2.28;;
64950;SDS011;51482;47.014;7.652;2022-10-16T08:58:33;3.95;;;1.70;;
64950;SDS011;51482;47.014;7.652;2022-10-16T09:01:03;2.80;;;1.30;;
64950;SDS011;51482;47.014;7.652;2022-10-16T09:23:16;3.72;;;2.00;;
64950;SDS011;51482;47.014;7.652;2022-10-16T09:25:48;4.45;;;1.80;;
64950;SDS011;51482;47.014;7.652;2022-10-16T09:28:15;5.20;;;2.10;;
64950;SDS011;51482;47.014;7.652;2022-10-16T09:30:42;4.70;;;2.80;;
64950;SDS011;51482;47.014;7.652;2022-10-16T09:33:09;4.97;;;2.17;;
64950;SDS011;51482;47.014;7.652;2022-10-16T09:38:03;2.30;;;1.85;;
64950;SDS011;51482;47.014;7.652;2022-10-16T09:40:33;2.03;;;1.83;;
64950;SDS011;51482;47.014;7.652;2022-10-16T09:43:46;4.60;;;2.63;;
64950;SDS011;51482;47.014;7.652;2022-10-16T09:45:55;2.80;;;2.10;;
64950;SDS011;51482;47.014;7.652;2022-10-16T09:48:21;2.08;;;1.70;;
64950;SDS011;51482;47.014;7.652;2022-10-16T09:51:00;1.85;;;1.75;;
64950;SDS011;51482;47.014;7.652;2022-10-16T09:54:29;3.00;;;2.70;;
64950;SDS011;51482;47.014;7.652;2022-10-16T09:56:26;3.38;;;2.05;;
64950;SDS011;51482;47.014;7.652;2022-10-16T09:58:54;3.95;;;2.60;;
64950;SDS011;51482;47.014;7.652;2022-10-16T10:01:22;2.85;;;1.50;;
64950;SDS011;51482;47.014;7.652;2022-10-16T10:04:09;1.58;;;1.48;;
64950;SDS011;51482;47.014;7.652;2022-10-16T10:06:43;4.38;;;1.60;;
64950;SDS011;51482;47.014;7.652;2022-10-16T10:09:17;2.30;;;1.52;;
64950;SDS011;51482;47.014;7.652;2022-10-16T10:14:30;5.05;;;2.00;;
64950;SDS011;51482;47.014;7.652;2022-10-16T10:27:35;3.55;;;1.98;;
64950;SDS011;51482;47.014;7.652;2022-10-16T10:30:25;3.85;;;1.65;;
64950;SDS011;51482;47.014;7.652;2022-10-16T10:33:14;1.70;;;1.60;;
64950;SDS011;51482;47.014;7.652;2022-10-16T10:35:44;1.83;;;1.70;;
64950;SDS011;51482;47.014;7.652;2022-10-16T10:43:26;1.42;;;1.30;;
64950;SDS011;51482;47.014;7.652;2022-10-16T10:46:13;4.07;;;1.30;;
64950;SDS011;51482;47.014;7.652;2022-10-16T10:49:49;4.80;;;1.70;;
64950;SDS011;51482;47.014;7.652;2022-10-16T10:54:35;2.38;;;1.20;;
64950;SDS011;51482;47.014;7.652;2022-10-16T11:02:50;1.02;;;0.90;;
64950;SDS011;51482;47.014;7.652;2022-10-16T11:08:22;1.58;;;1.42;;
64950;SDS011;51482;47.014;7.652;2022-10-16T11:11:06;2.33;;;1.38;;
64950;SDS011;51482;47.014;7.652;2022-10-16T11:16:54;2.35;;;1.42;;
64950;SDS011;51482;47.014;7.652;2022-10-16T11:19:32;1.38;;;1.20;;
64950;SDS011;51482;47.014;7.652;2022-10-16T11:22:17;1.85;;;1.20;;
64950;SDS011;51482;47.014;7.652;2022-10-16T11:25:13;1.10;;;1.10;;
64950;SDS011;51482;47.014;7.652;2022-10-16T11:27:43;3.22;;;1.60;;
64950;SDS011;51482;47.014;7.652;2022-10-16T11:30:20;1.60;;;1.50;;
64950;SDS011;51482;47.014;7.652;2022-10-16T11:33:00;1.77;;;1.25;;
64950;SDS011;51482;47.014;7.652;2022-10-16T11:35:50;2.42;;;1.13;;
64950;SDS011;51482;47.014;7.652;2022-10-16T11:38:39;3.60;;;1.30;;
64950;SDS011;51482;47.014;7.652;2022-10-16T11:49:40;1.25;;;1.17;;
64950;SDS011;51482;47.014;7.652;2022-10-16T11:54:47;0.93;;;0.93;;
64950;SDS011;51482;47.014;7.652;2022-10-16T11:57:27;2.00;;;1.52;;
64950;SDS011;51482;47.014;7.652;2022-10-16T12:08:16;3.85;;;1.55;;
64950;SDS011;51482;47.014;7.652;2022-10-16T12:10:44;2.70;;;1.50;;
64950;SDS011;51482;47.014;7.652;2022-10-16T12:13:33;1.33;;;1.20;;
64950;SDS011;51482;47.014;7.652;2022-10-16T12:18:41;1.67;;;1.20;;
64950;SDS011;51482;47.014;7.652;2022-10-16T12:21:08;1.40;;;1.30;;
64950;SDS011;51482;47.014;7.652;2022-10-16T12:23:38;3.20;;;1.27;;
64950;SDS011;51482;47.014;7.652;2022-10-16T12:26:12;1.70;;;1.20;;
64950;SDS011;51482;47.014;7.652;2022-10-16T12:28:37;1.52;;;1.25;;
64950;SDS011;51482;47.014;7.652;2022-10-16T12:31:07;1.40;;;1.30;;
64950;SDS011;51482;47.014;7.652;2022-10-16T12:33:35;1.58;;;1.40;;
64950;SDS011;51482;47.014;7.652;2022-10-16T12:36:05;3.85;;;1.40;;
64950;SDS011;51482;47.014;7.652;2022-10-16T12:38:52;3.33;;;1.20;;
64950;SDS011;51482;47.014;7.652;2022-10-16T12:41:29;4.30;;;1.45;;
64950;SDS011;51482;47.014;7.652;2022-10-16T12:43:57;2.22;;;1.20;;
64950;SDS011;51482;47.014;7.652;2022-10-16T12:51:39;1.60;;;1.50;;
64950;SDS011;51482;47.014;7.652;2022-10-16T13:08:09;3.35;;;1.38;;
64950;SDS011;51482;47.014;7.652;2022-10-16T13:10:51;5.30;;;1.60;;
64950;SDS011;51482;47.014;7.652;2022-10-16T13:16:02;3.78;;;1.63;;
64950;SDS011;51482;47.014;7.652;2022-10-16T13:24:00;2.13;;;1.25;;
64950;SDS011;51482;47.014;7.652;2022-10-16T13:29:20;1.45;;;1.35;;
64950;SDS011;51482;47.014;7.652;2022-10-16T13:31:46;2.58;;;1.30;;
64950;SDS011;51482;47.014;7.652;2022-10-16T13:34:21;1.20;;;1.20;;
64950;SDS011;51482;47.014;7.652;2022-10-16T13:36:51;1.75;;;1.45;;
64950;SDS011;51482;47.014;7.652;2022-10-16T13:44:55;2.25;;;1.38;;
64950;SDS011;51482;47.014;7.652;2022-10-16T13:47:25;2.78;;;1.40;;
64950;SDS011;51482;47.014;7.652;2022-10-16T13:50:02;1.63;;;1.15;;
64950;SDS011;51482;47.014;7.652;2022-10-16T13:52:30;2.15;;;1.77;;
64950;SDS011;51482;47.014;7.652;2022-10-16T13:54:56;1.65;;;1.40;;
64950;SDS011;51482;47.014;7.652;2022-10-16T13:57:22;1.60;;;1.50;;
64950;SDS011;51482;47.014;7.652;2022-10-16T13:59:49;3.72;;;1.70;;
64950;SDS011;51482;47.014;7.652;2022-10-16T14:02:24;2.85;;;1.52;;
64950;SDS011;51482;47.014;7.652;2022-10-16T14:04:55;2.85;;;1.50;;
64950;SDS011;51482;47.014;7.652;2022-10-16T14:07:26;1.20;;;1.10;;
64950;SDS011;51482;47.014;7.652;2022-10-16T14:09:59;5.13;;;1.85;;
64950;SDS011;51482;47.014;7.652;2022-10-16T14:12:30;3.33;;;1.27;;
64950;SDS011;51482;47.014;7.652;2022-10-16T14:15:05;2.28;;;1.42;;
64950;SDS011;51482;47.014;7.652;2022-10-16T14:17:42;5.07;;;1.52;;
64950;SDS011;51482;47.014;7.652;2022-10-16T14:20:14;1.92;;;1.30;;
64950;SDS011;51482;47.014;7.652;2022-10-16T14:22:41;2.38;;;1.60;;
64950;SDS011;51482;47.014;7.652;2022-10-16T14:27:44;3.38;;;1.45;;
64950;SDS011;51482;47.014;7.652;2022-10-16T14:30:20;2.22;;;1.42;;
64950;SDS011;51482;47.014;7.652;2022-10-16T14:32:57;1.33;;;1.23;;
64950;SDS011;51482;47.014;7.652;2022-10-16T14:35:26;2.25;;;1.48;;
64950;SDS011;51482;47.014;7.652;2022-10-16T14:37:59;3.65;;;1.48;;
64950;SDS011;51482;47.014;7.652;2022-10-16T14:40:28;5.55;;;2.00;;
64950;SDS011;51482;47.014;7.652;2022-10-16T14:42:56;1.60;;;1.50;;
64950;SDS011;51482;47.014;7.652;2022-10-16T14:45:23;3.95;;;1.50;;
64950;SDS011;51482;47.014;7.652;2022-10-16T14:47:54;6.53;;;2.10;;
64950;SDS011;51482;47.014;7.652;2022-10-16T14:50:22;3.13;;;1.50;;
64950;SDS011;51482;47.014;7.652;2022-10-16T14:52:47;2.58;;;1.70;;
64950;SDS011;51482;47.014;7.652;2022-10-16T14:55:13;1.90;;;1.40;;
64950;SDS011;51482;47.014;7.652;2022-10-16T14:57:39;1.80;;;1.70;;
64950;SDS011;51482;47.014;7.652;2022-10-16T15:00:23;2.92;;;1.60;;
64950;SDS011;51482;47.014;7.652;2022-10-16T15:02:49;2.58;;;1.70;;
64950;SDS011;51482;47.014;7.652;2022-10-16T15:07:42;4.53;;;1.50;;
64950;SDS011;51482;47.014;7.652;2022-10-16T15:10:08;3.30;;;1.55;;
64950;SDS011;51482;47.014;7.652;2022-10-16T15:12:34;4.13;;;1.58;;
64950;SDS011;51482;47.014;7.652;2022-10-16T15:15:00;4.30;;;1.58;;
64950;SDS011;51482;47.014;7.652;2022-10-16T15:17:26;1.63;;;1.52;;
64950;SDS011;51482;47.014;7.652;2022-10-16T15:19:51;3.75;;;1.70;;
64950;SDS011;51482;47.014;7.652;2022-10-16T15:22:17;5.53;;;2.45;;
64950;SDS011;51482;47.014;7.652;2022-10-16T15:24:42;2.97;;;1.45;;
64950;SDS011;51482;47.014;7.652;2022-10-16T15:27:08;2.55;;;1.50;;
64950;SDS011;51482;47.014;7.652;2022-10-16T15:29:34;4.18;;;1.48;;
64950;SDS011;51482;47.014;7.652;2022-10-16T15:32:00;5.82;;;1.70;;
64950;SDS011;51482;47.014;7.652;2022-10-16T15:34:25;3.28;;;1.58;;
64950;SDS011;51482;47.014;7.652;2022-10-16T15:36:51;3.80;;;1.60;;
64950;SDS011;51482;47.014;7.652;2022-10-16T15:39:20;4.10;;;1.73;;
64950;SDS011;51482;47.014;7.652;2022-10-16T15:41:46;4.03;;;1.77;;
64950;SDS011;51482;47.014;7.652;2022-10-16T15:44:18;1.60;;;1.50;;
64950;SDS011;51482;47.014;7.652;2022-10-16T15:46:45;3.50;;;2.35;;
64950;SDS011;51482;47.014;7.652;2022-10-16T15:49:12;2.95;;;2.05;;
64950;SDS011;51482;47.014;7.652;2022-10-16T15:51:38;6.63;;;2.45;;
64950;SDS011;51482;47.014;7.652;2022-10-16T15:54:05;6.38;;;1.70;;
64950;SDS011;51482;47.014;7.652;2022-10-16T15:56:31;2.40;;;1.80;;
64950;SDS011;51482;47.014;7.652;2022-10-16T15:58:58;4.13;;;1.80;;
64950;SDS011;51482;47.014;7.652;2022-10-16T16:01:27;2.67;;;1.65;;
64950;SDS011;51482;47.014;7.652;2022-10-16T16:03:54;5.38;;;1.65;;
64950;SDS011;51482;47.014;7.652;2022-10-16T16:06:20;3.67;;;1.55;;
64950;SDS011;51482;47.014;7.652;2022-10-16T16:08:47;5.18;;;1.77;;
64950;SDS011;51482;47.014;7.652;2022-10-16T16:11:13;2.72;;;2.03;;
64950;SDS011;51482;47.014;7.652;2022-10-16T16:13:40;4.03;;;2.00;;
64950;SDS011;51482;47.014;7.652;2022-10-16T16:16:07;3.83;;;2.03;;
64950;SDS011;51482;47.014;7.652;2022-10-16T16:18:38;1.85;;;1.67;;
64950;SDS011;51482;47.014;7.652;2022-10-16T16:21:04;5.35;;;1.83;;
64950;SDS011;51482;47.014;7.652;2022-10-16T16:23:30;6.10;;;2.00;;
64950;SDS011;51482;47.014;7.652;2022-10-16T16:26:02;3.20;;;1.67;;
64950;SDS011;51482;47.014;7.652;2022-10-16T16:28:29;3.78;;;1.83;;
64950;SDS011;51482;47.014;7.652;2022-10-16T16:30:55;3.03;;;1.88;;
64950;SDS011;51482;47.014;7.652;2022-10-16T16:33:21;9.13;;;2.25;;
64950;SDS011;51482;47.014;7.652;2022-10-16T16:35:49;4.88;;;1.90;;
64950;SDS011;51482;47.014;7.652;2022-10-16T16:38:15;3.25;;;1.95;;
64950;SDS011;51482;47.014;7.652;2022-10-16T16:40:41;5.60;;;2.20;;
64950;SDS011;51482;47.014;7.652;2022-10-16T16:43:09;4.72;;;1.90;;
64950;SDS011;51482;47.014;7.652;2022-10-16T16:45:35;3.00;;;2.70;;
64950;SDS011;51482;47.014;7.652;2022-10-16T16:48:14;2.00;;;1.88;;
64950;SDS011;51482;47.014;7.652;2022-10-16T16:50:39;3.75;;;2.20;;
64950;SDS011;51482;47.014;7.652;2022-10-16T16:53:05;2.80;;;1.92;;
64950;SDS011;51482;47.014;7.652;2022-10-16T16:55:33;2.03;;;1.75;;
64950;SDS011;51482;47.014;7.652;2022-10-16T16:57:59;4.47;;;1.80;;
64950;SDS011;51482;47.014;7.652;2022-10-16T17:00:31;1.55;;;1.45;;
64950;SDS011;51482;47.014;7.652;2022-10-16T17:02:59;6.68;;;2.20;;
64950;SDS011;51482;47.014;7.652;2022-10-16T17:05:24;2.03;;;1.80;;
64950;SDS011;51482;47.014;7.652;2022-10-16T17:07:53;3.85;;;2.13;;
64950;SDS011;51482;47.014;7.652;2022-10-16T17:10:18;3.35;;;1.75;;
64950;SDS011;51482;47.014;7.652;2022-10-16T17:12:44;3.53;;;2.00;;
64950;SDS011;51482;47.014;7.652;2022-10-16T17:15:11;6.03;;;2.47;;
64950;SDS011;51482;47.014;7.652;2022-10-16T17:17:36;5.57;;;2.08;;